Cap Bizerta — 9HA2032 — position and weather

sailwx.info

Track history (hours):
 
Tides and Currents Weather Stations Pressure Air Temp Water Temp Dewpoint Dewpoint Depression Visibility Wind Speed Wind Dir Waves Ship Positions

Cap Bizerta

Last reported at 2018-Apr-22 16:00 UTC. Time now 2018-Apr-22 16:12 UTC.
Position N 09°15' W 079°55'.

Length 210 m; draft 10.7 m.

Type: Ship (hazmat cat A). MMSI: 249836800.

Date/timePositionNaut miles runAvg speedWind from/ knotsBaromVisibWave heightAir tempDewpointWater temp
2018-Apr-22 16:00N 09°15' W 079°55'0 0.1
2018-Apr-22 15:30N 09°15' W 079°55'0 0.0
2018-Apr-22 15:00N 09°15' W 079°55'0 0.5
2018-Apr-22 14:30N 09°15' W 079°55'1 2.8
2018-Apr-22 14:00N 09°16' W 079°55'0 0.4
2018-Apr-22 13:19N 09°17' W 079°55'0 0.5
2018-Apr-22 12:53N 09°17' W 079°55'1 1.4
2018-Apr-22 12:28N 09°17' W 079°55'2 4.0
2018-Apr-22 11:57N 09°19' W 079°55'3 5.8
2018-Apr-22 11:30N 09°22' W 079°55'2 4.2
2018-Apr-22 11:00N 09°24' W 079°55'3 6.1
2018-Apr-22 10:30N 09°27' W 079°54'2 3.6
2018-Apr-22 10:00N 09°27' W 079°52'1 1.1
2018-Apr-22 09:28N 09°27' W 079°52'0 0.0
2018-Apr-22 08:58N 09°27' W 079°52'0 0.0
2018-Apr-22 08:28N 09°27' W 079°52'0 0.0
2018-Apr-22 07:52N 09°27' W 079°52'0 0.0
2018-Apr-22 07:28N 09°27' W 079°52'0 0.0
2018-Apr-22 06:55N 09°27' W 079°52'0 0.0
2018-Apr-22 06:28N 09°27' W 079°52'0 0.1
2018-Apr-22 05:58N 09°27' W 079°52'0 0.0
2018-Apr-22 05:25N 09°27' W 079°52'0 0.0
2018-Apr-22 04:58N 09°27' W 079°52'0 0.0
2018-Apr-22 04:28N 09°27' W 079°52'0 0.1
2018-Apr-22 03:55N 09°27' W 079°52'1 2.8
2018-Apr-22 03:30N 09°26' W 079°53'4 8.0
2018-Apr-22 03:00N 09°22' W 079°54'1 2.3
2018-Apr-22 02:29N 09°22' W 079°53'0 0.0
2018-Apr-22 01:59N 09°22' W 079°53'0 0.0
2018-Apr-22 01:23N 09°22' W 079°53'0 0.0
2018-Apr-22 00:59N 09°22' W 079°53'0 0.0
2018-Apr-22 00:29N 09°22' W 079°53'0 0.0
2018-Apr-21 23:59N 09°22' W 079°53'0 0.0
2018-Apr-21 23:29N 09°22' W 079°53'0 0.0
2018-Apr-21 22:59N 09°22' W 079°53'0 0.0
2018-Apr-21 22:29N 09°22' W 079°53'0 0.0
2018-Apr-21 21:59N 09°22' W 079°53'0 0.0
2018-Apr-21 21:29N 09°22' W 079°53'0 0.0
2018-Apr-21 20:59N 09°22' W 079°53'0 0.0
2018-Apr-21 20:29N 09°22' W 079°53'0 0.0
2018-Apr-21 19:59N 09°22' W 079°53'0 0.0
2018-Apr-21 19:29N 09°22' W 079°53'0 0.0
2018-Apr-21 18:59N 09°22' W 079°53'0 0.0
2018-Apr-21 18:29N 09°22' W 079°53'0 0.0
2018-Apr-21 17:59N 09°22' W 079°53'0 0.0
2018-Apr-21 17:29N 09°22' W 079°53'0 0.0
2018-Apr-21 16:59N 09°22' W 079°53'0 0.0
2018-Apr-21 16:29N 09°22' W 079°53'0 0.0
2018-Apr-21 15:59N 09°22' W 079°53'0 0.0
2018-Apr-21 15:29N 09°22' W 079°53'0 0.0
2018-Apr-21 14:59N 09°22' W 079°53'0 0.0
2018-Apr-21 14:29N 09°22' W 079°53'0 0.0
2018-Apr-21 13:59N 09°22' W 079°53'0 0.0
2018-Apr-21 13:29N 09°22' W 079°53'0 0.0
2018-Apr-21 12:59N 09°22' W 079°53'0 0.0
2018-Apr-21 12:29N 09°22' W 079°53'0 0.0
2018-Apr-21 11:59N 09°22' W 079°53'0 0.0
2018-Apr-21 11:29N 09°22' W 079°53'0 0.0
2018-Apr-21 10:59N 09°22' W 079°53'0 0.0
2018-Apr-21 10:29N 09°22' W 079°53'0 0.0
2018-Apr-21 09:59N 09°22' W 079°53'0 0.0
2018-Apr-21 09:29N 09°22' W 079°53'0 0.0
2018-Apr-21 08:59N 09°22' W 079°53'0 0.1
2018-Apr-21 08:29N 09°22' W 079°53'0 0.0
2018-Apr-21 07:59N 09°22' W 079°53'0 0.0
2018-Apr-21 07:29N 09°22' W 079°53'0 0.0
2018-Apr-21 06:59N 09°22' W 079°53'0 0.0
2018-Apr-21 06:29N 09°22' W 079°53'0 0.0
2018-Apr-21 05:59N 09°22' W 079°53'0 0.0
2018-Apr-21 05:29N 09°22' W 079°53'0 0.0
2018-Apr-21 04:59N 09°22' W 079°53'0 0.0
2018-Apr-21 04:29N 09°22' W 079°53'0 0.4
2018-Apr-21 04:01N 09°22' W 079°53'0 0.3
2018-Apr-21 03:30N 09°22' W 079°53'0 0.0
2018-Apr-21 03:00N 09°22' W 079°53'0 0.0
2018-Apr-21 02:30N 09°22' W 079°53'0 0.0
2018-Apr-21 02:00N 09°22' W 079°53'0 0.0
2018-Apr-21 01:30N 09°22' W 079°53'0 0.0
2018-Apr-21 01:00N 09°22' W 079°53'0 0.0
2018-Apr-21 00:30N 09°22' W 079°53'0 0.0
2018-Apr-21 00:00N 09°22' W 079°53'0 0.0
2018-Apr-20 23:30N 09°22' W 079°53'0 0.0
2018-Apr-20 23:00N 09°22' W 079°53'0 0.0
2018-Apr-20 22:30N 09°22' W 079°53'0 0.0
2018-Apr-20 22:00N 09°22' W 079°53'0 0.0
2018-Apr-20 21:30N 09°22' W 079°53'0 0.0
2018-Apr-20 21:00N 09°22' W 079°53'0 0.0
2018-Apr-20 20:30N 09°22' W 079°53'0 0.0
2018-Apr-20 20:00N 09°22' W 079°53'0 0.0
2018-Apr-20 19:30N 09°22' W 079°53'0 0.0
2018-Apr-20 19:00N 09°22' W 079°53'0 0.0
2018-Apr-20 18:30N 09°22' W 079°53'0 0.0
2018-Apr-20 18:00N 09°22' W 079°53'0 0.0
2018-Apr-20 17:30N 09°22' W 079°53'0 0.0
2018-Apr-20 17:00N 09°22' W 079°53'0 0.0
2018-Apr-20 16:30N 09°22' W 079°53'0 0.0
2018-Apr-20 16:00N 09°22' W 079°53'0 0.0
2018-Apr-20 15:30N 09°22' W 079°53'0 0.0
2018-Apr-20 15:00N 09°22' W 079°53'0 0.0
2018-Apr-20 14:30N 09°22' W 079°53'0 0.0
2018-Apr-20 14:00N 09°22' W 079°53'0 0.0
2018-Apr-20 13:30N 09°22' W 079°53'0 0.0
2018-Apr-20 13:00N 09°22' W 079°53'0 0.0
2018-Apr-20 12:30N 09°22' W 079°53'0 0.0
2018-Apr-20 12:00N 09°22' W 079°53'0 0.0
2018-Apr-20 11:30N 09°22' W 079°53'0 0.0
2018-Apr-20 11:00N 09°22' W 079°53'0 0.0
2018-Apr-20 10:27N 09°22' W 079°53'0 0.0
2018-Apr-20 09:57N 09°22' W 079°53'0 0.0
2018-Apr-20 09:30N 09°22' W 079°53'0 0.0
2018-Apr-20 09:00N 09°22' W 079°53'0 0.0
2018-Apr-20 08:30N 09°22' W 079°53'0 0.0
2018-Apr-20 08:00N 09°22' W 079°53'0 0.0
2018-Apr-20 07:30N 09°22' W 079°53'0 0.0
2018-Apr-20 07:00N 09°22' W 079°53'0 0.0
2018-Apr-20 06:30N 09°22' W 079°53'0 0.0
2018-Apr-20 06:00N 09°22' W 079°53'0 0.0
2018-Apr-20 05:30N 09°22' W 079°53'0 0.0
2018-Apr-20 05:00N 09°22' W 079°53'0 0.0
2018-Apr-20 04:30N 09°22' W 079°53'0 0.0
2018-Apr-20 04:00N 09°22' W 079°53'0 0.0
2018-Apr-20 03:30N 09°22' W 079°53'0 0.0
2018-Apr-20 03:00N 09°22' W 079°53'0 0.0
2018-Apr-20 02:30N 09°22' W 079°53'0 0.0
2018-Apr-20 02:00N 09°22' W 079°53'0 0.0
2018-Apr-20 01:30N 09°22' W 079°53'0 0.0
2018-Apr-20 01:00N 09°22' W 079°53'0 0.0
2018-Apr-20 00:30N 09°22' W 079°53'0 0.0
2018-Apr-20 00:00N 09°22' W 079°53'0 0.0
2018-Apr-19 23:30N 09°22' W 079°53'0 0.0
2018-Apr-19 23:00N 09°22' W 079°53'0 0.0
2018-Apr-19 22:30N 09°22' W 079°53'0 0.0
2018-Apr-19 22:00N 09°22' W 079°53'0 0.0
2018-Apr-19 21:30N 09°22' W 079°53'0 0.0
2018-Apr-19 21:00N 09°22' W 079°53'0 0.0
2018-Apr-19 20:30N 09°22' W 079°53'0 0.0
2018-Apr-19 20:00N 09°22' W 079°53'0 0.0
2018-Apr-19 19:30N 09°22' W 079°53'0 0.0
2018-Apr-19 19:00N 09°22' W 079°53'0 0.0
2018-Apr-19 18:30N 09°22' W 079°53'0 0.0
2018-Apr-19 18:00N 09°22' W 079°53'0 0.0
2018-Apr-19 17:30N 09°22' W 079°53'0 0.0
2018-Apr-19 17:00N 09°22' W 079°53'0 0.0
2018-Apr-19 16:30N 09°22' W 079°53'0 0.0
2018-Apr-19 16:00N 09°22' W 079°53'0 0.0
2018-Apr-19 15:30N 09°22' W 079°53'0 0.0
2018-Apr-19 15:00N 09°22' W 079°53'0 0.0
2018-Apr-19 14:30N 09°22' W 079°53'0 0.0
2018-Apr-19 14:00N 09°22' W 079°53'0 0.0
2018-Apr-19 13:30N 09°22' W 079°53'0 0.0
2018-Apr-19 13:00N 09°22' W 079°53'0 0.0
2018-Apr-19 12:30N 09°22' W 079°53'0 0.0
2018-Apr-19 12:00N 09°22' W 079°53'0 0.0
2018-Apr-19 11:30N 09°22' W 079°53'0 0.0
2018-Apr-19 11:00N 09°22' W 079°53'0 0.0
2018-Apr-19 10:30N 09°22' W 079°53'0 0.0
2018-Apr-19 09:57N 09°22' W 079°53'0 0.0
2018-Apr-19 09:30N 09°22' W 079°53'0 0.0
2018-Apr-19 09:00N 09°22' W 079°53'0 0.0
2018-Apr-19 08:30N 09°22' W 079°53'0 0.0
2018-Apr-19 08:00N 09°22' W 079°53'0 0.0
2018-Apr-19 07:30N 09°22' W 079°53'0 0.0
2018-Apr-19 07:00N 09°22' W 079°53'0 0.0
2018-Apr-19 06:30N 09°22' W 079°53'0 0.0
2018-Apr-19 06:00N 09°22' W 079°53'0 0.0
2018-Apr-19 05:30N 09°22' W 079°53'0 0.0
2018-Apr-19 05:00N 09°22' W 079°53'0 0.0
2018-Apr-19 04:30N 09°22' W 079°53'0 0.0
2018-Apr-19 04:00N 09°22' W 079°53'0 0.0
2018-Apr-19 03:30N 09°22' W 079°53'0 0.0
2018-Apr-19 03:00N 09°22' W 079°53'0 0.0
2018-Apr-19 02:30N 09°22' W 079°53'0 0.0
2018-Apr-19 02:00N 09°22' W 079°53'0 0.0
2018-Apr-19 01:30N 09°22' W 079°53'0 0.0
2018-Apr-19 01:00N 09°22' W 079°53'0 0.0
2018-Apr-19 00:30N 09°22' W 079°53'0 0.0
2018-Apr-19 00:00N 09°22' W 079°53'0 0.0
2018-Apr-18 23:30N 09°22' W 079°53'0 0.0
2018-Apr-18 23:00N 09°22' W 079°53'0 0.0
2018-Apr-18 22:30N 09°22' W 079°53'0 0.0
2018-Apr-18 22:00N 09°22' W 079°53'0 0.0
2018-Apr-18 21:30N 09°22' W 079°53'0 0.0
2018-Apr-18 21:00N 09°22' W 079°53'0 0.0
2018-Apr-18 20:30N 09°22' W 079°53'0 0.0
2018-Apr-18 20:00N 09°22' W 079°53'0 0.0
2018-Apr-18 19:30N 09°22' W 079°53'0 0.0
2018-Apr-18 19:00N 09°22' W 079°53'0 0.0
2018-Apr-18 18:30N 09°22' W 079°53'0 0.0
2018-Apr-18 18:00N 09°22' W 079°53'0 0.0
2018-Apr-18 17:30N 09°22' W 079°53'0 0.0
2018-Apr-18 17:00N 09°22' W 079°53'1 2.9
2018-Apr-18 16:30N 09°23' W 079°54'2 5.0
2018-Apr-18 16:00N 09°26' W 079°54'2 3.6
2018-Apr-18 15:30N 09°27' W 079°53'3 6.6
2018-Apr-18 15:00N 09°30' W 079°53'1 2.4
2018-Apr-18 14:30N 09°29' W 079°53'1 1.3
2018-Apr-18 14:00N 09°30' W 079°52'1 1.5
2018-Apr-18 13:15N 09°28' W 079°53'0 1.2
2018-Apr-18 12:58N 09°28' W 079°53'1 1.4
2018-Apr-18 12:30N 09°29' W 079°53'1 1.8
2018-Apr-18 12:00N 09°28' W 079°53'2 3.6
2018-Apr-18 11:30N 09°26' W 079°54'510.0
2018-Apr-18 11:01N 09°31' W 079°52'714.7
2018-Apr-18 10:30N 09°38' W 079°50'  
2018-Apr-16 02:23N 25°24' W 079°36'918.8
2018-Apr-16 01:54N 25°32' W 079°39'718.2
2018-Apr-16 01:30N 25°39' W 079°40'816.4
2018-Apr-16 01:00N 25°48' W 079°42'816.4
2018-Apr-16 00:30N 25°53' W 079°48'816.5
2018-Apr-16 00:00N 25°59' W 079°55'816.8
2018-Apr-15 23:30N 26°05' W 080°02'4 8.8
2018-Apr-15 23:00N 26°06' W 080°07'1 2.2
2018-Apr-15 22:28N 26°04' W 080°07'0 0.0
2018-Apr-15 21:58N 26°04' W 080°07'0 0.0
2018-Apr-15 21:28N 26°04' W 080°07'0 0.0
2018-Apr-15 20:58N 26°04' W 080°07'0 0.0
2018-Apr-15 20:28N 26°04' W 080°07'0 0.0
2018-Apr-15 19:58N 26°04' W 080°07'0 0.0
2018-Apr-15 19:28N 26°04' W 080°07'0 0.0
2018-Apr-15 18:58N 26°04' W 080°07'0 0.0
2018-Apr-15 18:28N 26°04' W 080°07'0 0.0
2018-Apr-15 17:58N 26°04' W 080°07'0 0.0
2018-Apr-15 17:28N 26°04' W 080°07'0 0.0
2018-Apr-15 16:58N 26°04' W 080°07'0 0.0
2018-Apr-15 16:28N 26°04' W 080°07'0 0.0
2018-Apr-15 15:58N 26°04' W 080°07'0 0.0
2018-Apr-15 15:28N 26°04' W 080°07'0 0.0
2018-Apr-15 14:58N 26°04' W 080°07'0 0.0
2018-Apr-15 14:28N 26°04' W 080°07'0 0.0
2018-Apr-15 13:58N 26°04' W 080°07'0 0.0
2018-Apr-15 13:28N 26°04' W 080°07'0 0.0
2018-Apr-15 12:58N 26°04' W 080°07'0 0.0
2018-Apr-15 12:28N 26°04' W 080°07'0 0.0
2018-Apr-15 11:58N 26°04' W 080°07'0 0.0
2018-Apr-15 11:26N 26°04' W 080°07'1 3.0
2018-Apr-15 11:00N 26°06' W 080°07'4 7.7
2018-Apr-15 10:30N 26°06' W 080°02'2 4.1
2018-Apr-15 10:00N 26°07' W 080°01'2 4.9
2018-Apr-15 09:30N 26°09' W 080°00'2 4.2
2018-Apr-15 09:00N 26°12' W 080°00'2 4.1
2018-Apr-15 08:30N 26°14' W 079°60'2 4.4
2018-Apr-15 08:00N 26°16' W 079°60'2 4.6
2018-Apr-15 07:30N 26°18' W 079°60'2 4.1
2018-Apr-15 07:00N 26°20' W 079°60'2 4.3
2018-Apr-15 06:30N 26°22' W 079°59'2 3.4
2018-Apr-15 06:00N 26°24' W 079°59'714.2
2018-Apr-15 05:30N 26°31' W 079°59'918.1
2018-Apr-15 05:00N 26°40' W 079°58'917.6
2018-Apr-15 04:30N 26°49' W 079°58'917.9
2018-Apr-15 04:00N 26°58' W 079°58'917.8
2018-Apr-15 03:30N 27°07' W 079°58'27518.6
2018-Apr-14 12:45N 31°41' W 080°31'618.9
2018-Apr-14 12:27N 31°46' W 080°32'512.1
2018-Apr-14 12:01N 31°51' W 080°35'5 9.7
2018-Apr-14 11:30N 31°54' W 080°39'5 9.6
2018-Apr-14 11:00N 31°58' W 080°43'713.1
2018-Apr-14 10:30N 32°02' W 080°49'611.8
2018-Apr-14 10:00N 32°03' W 080°56'510.4
2018-Apr-14 09:30N 32°06' W 081°01'4 7.5
2018-Apr-14 09:00N 32°05' W 081°05'2 4.7
2018-Apr-14 08:30N 32°06' W 081°07'1 1.8
2018-Apr-14 07:48N 32°07' W 081°08'0 0.0
2018-Apr-14 07:30N 32°07' W 081°08'0 0.0
2018-Apr-14 07:00N 32°07' W 081°08'0 0.0
2018-Apr-14 06:30N 32°07' W 081°08'0 0.0
2018-Apr-14 06:00N 32°07' W 081°08'0 0.0
2018-Apr-14 05:30N 32°07' W 081°08'0 0.0
2018-Apr-14 05:00N 32°07' W 081°08'0 0.0
2018-Apr-14 04:30N 32°07' W 081°08'0 0.0
2018-Apr-14 04:00N 32°07' W 081°08'0 0.0
2018-Apr-14 03:30N 32°07' W 081°08'0 0.0
2018-Apr-14 03:00N 32°07' W 081°08'0 0.0
2018-Apr-14 02:30N 32°07' W 081°08'0 0.0
2018-Apr-14 02:00N 32°07' W 081°08'0 0.0
2018-Apr-14 01:30N 32°07' W 081°08'0 0.0
2018-Apr-14 01:00N 32°07' W 081°08'0 0.0
2018-Apr-14 00:30N 32°07' W 081°08'0 0.9
2018-Apr-14 00:00N 32°08' W 081°08'2 3.9
2018-Apr-13 23:30N 32°06' W 081°07'2 4.5
2018-Apr-13 23:00N 32°05' W 081°05'3 5.5
2018-Apr-13 22:30N 32°05' W 081°01'4 8.4
2018-Apr-13 22:00N 32°04' W 080°57'510.9
2018-Apr-13 21:30N 32°02' W 080°51'713.4
2018-Apr-13 21:00N 31°58' W 080°44'5 9.4
2018-Apr-13 20:30N 31°57' W 080°39'4 7.7
2018-Apr-13 20:00N 31°57' W 080°35'4 7.6
2018-Apr-13 19:30N 31°58' W 080°30'4 7.5
2018-Apr-13 19:00N 31°58' W 080°26'4 7.5
2018-Apr-13 18:30N 31°59' W 080°21'2 4.5
2018-Apr-13 18:00N 31°59' W 080°19'0 0.9
2018-Apr-13 17:29N 31°59' W 080°18'3 6.0
2018-Apr-13 16:56N 31°60' W 080°14'  
Track history (hours):
 
Tides and Currents Weather Stations Pressure Air Temp Water Temp Dewpoint Dewpoint Depression Visibility Wind Speed Wind Dir Waves Ship Positions

Cap Bizerta

Last reported at 2018-Apr-22 16:00 UTC. Time now 2018-Apr-22 16:12 UTC.
Position N 09°15' W 079°55'.

Length 210 m; draft 10.7 m.

Type: Ship (hazmat cat A). MMSI: 249836800.

Date/timePositionNaut miles runAvg speedWind from/ knotsBaromVisibWave heightAir tempDewpointWater temp
2018-Apr-22 16:00N 09°15' W 079°55'0 0.1
2018-Apr-22 15:30N 09°15' W 079°55'0 0.0
2018-Apr-22 15:00N 09°15' W 079°55'0 0.5
2018-Apr-22 14:30N 09°15' W 079°55'1 2.8
2018-Apr-22 14:00N 09°16' W 079°55'0 0.4
2018-Apr-22 13:19N 09°17' W 079°55'0 0.5
2018-Apr-22 12:53N 09°17' W 079°55'1 1.4
2018-Apr-22 12:28N 09°17' W 079°55'2 4.0
2018-Apr-22 11:57N 09°19' W 079°55'3 5.8
2018-Apr-22 11:30N 09°22' W 079°55'2 4.2
2018-Apr-22 11:00N 09°24' W 079°55'3 6.1
2018-Apr-22 10:30N 09°27' W 079°54'2 3.6
2018-Apr-22 10:00N 09°27' W 079°52'1 1.1
2018-Apr-22 09:28N 09°27' W 079°52'0 0.0
2018-Apr-22 08:58N 09°27' W 079°52'0 0.0
2018-Apr-22 08:28N 09°27' W 079°52'0 0.0
2018-Apr-22 07:52N 09°27' W 079°52'0 0.0
2018-Apr-22 07:28N 09°27' W 079°52'0 0.0
2018-Apr-22 06:55N 09°27' W 079°52'0 0.0
2018-Apr-22 06:28N 09°27' W 079°52'0 0.1
2018-Apr-22 05:58N 09°27' W 079°52'0 0.0
2018-Apr-22 05:25N 09°27' W 079°52'0 0.0
2018-Apr-22 04:58N 09°27' W 079°52'0 0.0
2018-Apr-22 04:28N 09°27' W 079°52'0 0.1
2018-Apr-22 03:55N 09°27' W 079°52'1 2.8
2018-Apr-22 03:30N 09°26' W 079°53'4 8.0
2018-Apr-22 03:00N 09°22' W 079°54'1 2.3
2018-Apr-22 02:29N 09°22' W 079°53'0 0.0
2018-Apr-22 01:59N 09°22' W 079°53'0 0.0
2018-Apr-22 01:23N 09°22' W 079°53'0 0.0
2018-Apr-22 00:59N 09°22' W 079°53'0 0.0
2018-Apr-22 00:29N 09°22' W 079°53'0 0.0
2018-Apr-21 23:59N 09°22' W 079°53'0 0.0
2018-Apr-21 23:29N 09°22' W 079°53'0 0.0
2018-Apr-21 22:59N 09°22' W 079°53'0 0.0
2018-Apr-21 22:29N 09°22' W 079°53'0 0.0
2018-Apr-21 21:59N 09°22' W 079°53'0 0.0
2018-Apr-21 21:29N 09°22' W 079°53'0 0.0
2018-Apr-21 20:59N 09°22' W 079°53'0 0.0
2018-Apr-21 20:29N 09°22' W 079°53'0 0.0
2018-Apr-21 19:59N 09°22' W 079°53'0 0.0
2018-Apr-21 19:29N 09°22' W 079°53'0 0.0
2018-Apr-21 18:59N 09°22' W 079°53'0 0.0
2018-Apr-21 18:29N 09°22' W 079°53'0 0.0
2018-Apr-21 17:59N 09°22' W 079°53'0 0.0
2018-Apr-21 17:29N 09°22' W 079°53'0 0.0
2018-Apr-21 16:59N 09°22' W 079°53'0 0.0
2018-Apr-21 16:29N 09°22' W 079°53'0 0.0
2018-Apr-21 15:59N 09°22' W 079°53'0 0.0
2018-Apr-21 15:29N 09°22' W 079°53'0 0.0
2018-Apr-21 14:59N 09°22' W 079°53'0 0.0
2018-Apr-21 14:29N 09°22' W 079°53'0 0.0
2018-Apr-21 13:59N 09°22' W 079°53'0 0.0
2018-Apr-21 13:29N 09°22' W 079°53'0 0.0
2018-Apr-21 12:59N 09°22' W 079°53'0 0.0
2018-Apr-21 12:29N 09°22' W 079°53'0 0.0
2018-Apr-21 11:59N 09°22' W 079°53'0 0.0
2018-Apr-21 11:29N 09°22' W 079°53'0 0.0
2018-Apr-21 10:59N 09°22' W 079°53'0 0.0
2018-Apr-21 10:29N 09°22' W 079°53'0 0.0
2018-Apr-21 09:59N 09°22' W 079°53'0 0.0
2018-Apr-21 09:29N 09°22' W 079°53'0 0.0
2018-Apr-21 08:59N 09°22' W 079°53'0 0.1
2018-Apr-21 08:29N 09°22' W 079°53'0 0.0
2018-Apr-21 07:59N 09°22' W 079°53'0 0.0
2018-Apr-21 07:29N 09°22' W 079°53'0 0.0
2018-Apr-21 06:59N 09°22' W 079°53'0 0.0
2018-Apr-21 06:29N 09°22' W 079°53'0 0.0
2018-Apr-21 05:59N 09°22' W 079°53'0 0.0
2018-Apr-21 05:29N 09°22' W 079°53'0 0.0
2018-Apr-21 04:59N 09°22' W 079°53'0 0.0
2018-Apr-21 04:29N 09°22' W 079°53'0 0.4
2018-Apr-21 04:01N 09°22' W 079°53'0 0.3
2018-Apr-21 03:30N 09°22' W 079°53'0 0.0
2018-Apr-21 03:00N 09°22' W 079°53'0 0.0
2018-Apr-21 02:30N 09°22' W 079°53'0 0.0
2018-Apr-21 02:00N 09°22' W 079°53'0 0.0
2018-Apr-21 01:30N 09°22' W 079°53'0 0.0
2018-Apr-21 01:00N 09°22' W 079°53'0 0.0
2018-Apr-21 00:30N 09°22' W 079°53'0 0.0
2018-Apr-21 00:00N 09°22' W 079°53'0 0.0
2018-Apr-20 23:30N 09°22' W 079°53'0 0.0
2018-Apr-20 23:00N 09°22' W 079°53'0 0.0
2018-Apr-20 22:30N 09°22' W 079°53'0 0.0
2018-Apr-20 22:00N 09°22' W 079°53'0 0.0
2018-Apr-20 21:30N 09°22' W 079°53'0 0.0
2018-Apr-20 21:00N 09°22' W 079°53'0 0.0
2018-Apr-20 20:30N 09°22' W 079°53'0 0.0
2018-Apr-20 20:00N 09°22' W 079°53'0 0.0
2018-Apr-20 19:30N 09°22' W 079°53'0 0.0
2018-Apr-20 19:00N 09°22' W 079°53'0 0.0
2018-Apr-20 18:30N 09°22' W 079°53'0 0.0
2018-Apr-20 18:00N 09°22' W 079°53'0 0.0
2018-Apr-20 17:30N 09°22' W 079°53'0 0.0
2018-Apr-20 17:00N 09°22' W 079°53'0 0.0
2018-Apr-20 16:30N 09°22' W 079°53'0 0.0
2018-Apr-20 16:00N 09°22' W 079°53'0 0.0
2018-Apr-20 15:30N 09°22' W 079°53'0 0.0
2018-Apr-20 15:00N 09°22' W 079°53'0 0.0
2018-Apr-20 14:30N 09°22' W 079°53'0 0.0
2018-Apr-20 14:00N 09°22' W 079°53'0 0.0
2018-Apr-20 13:30N 09°22' W 079°53'0 0.0
2018-Apr-20 13:00N 09°22' W 079°53'0 0.0
2018-Apr-20 12:30N 09°22' W 079°53'0 0.0
2018-Apr-20 12:00N 09°22' W 079°53'0 0.0
2018-Apr-20 11:30N 09°22' W 079°53'0 0.0
2018-Apr-20 11:00N 09°22' W 079°53'0 0.0
2018-Apr-20 10:27N 09°22' W 079°53'0 0.0
2018-Apr-20 09:57N 09°22' W 079°53'0 0.0
2018-Apr-20 09:30N 09°22' W 079°53'0 0.0
2018-Apr-20 09:00N 09°22' W 079°53'0 0.0
2018-Apr-20 08:30N 09°22' W 079°53'0 0.0
2018-Apr-20 08:00N 09°22' W 079°53'0 0.0
2018-Apr-20 07:30N 09°22' W 079°53'0 0.0
2018-Apr-20 07:00N 09°22' W 079°53'0 0.0
2018-Apr-20 06:30N 09°22' W 079°53'0 0.0
2018-Apr-20 06:00N 09°22' W 079°53'0 0.0
2018-Apr-20 05:30N 09°22' W 079°53'0 0.0
2018-Apr-20 05:00N 09°22' W 079°53'0 0.0
2018-Apr-20 04:30N 09°22' W 079°53'0 0.0
2018-Apr-20 04:00N 09°22' W 079°53'0 0.0
2018-Apr-20 03:30N 09°22' W 079°53'0 0.0
2018-Apr-20 03:00N 09°22' W 079°53'0 0.0
2018-Apr-20 02:30N 09°22' W 079°53'0 0.0
2018-Apr-20 02:00N 09°22' W 079°53'0 0.0
2018-Apr-20 01:30N 09°22' W 079°53'0 0.0
2018-Apr-20 01:00N 09°22' W 079°53'0 0.0
2018-Apr-20 00:30N 09°22' W 079°53'0 0.0
2018-Apr-20 00:00N 09°22' W 079°53'0 0.0
2018-Apr-19 23:30N 09°22' W 079°53'0 0.0
2018-Apr-19 23:00N 09°22' W 079°53'0 0.0
2018-Apr-19 22:30N 09°22' W 079°53'0 0.0
2018-Apr-19 22:00N 09°22' W 079°53'0 0.0
2018-Apr-19 21:30N 09°22' W 079°53'0 0.0
2018-Apr-19 21:00N 09°22' W 079°53'0 0.0
2018-Apr-19 20:30N 09°22' W 079°53'0 0.0
2018-Apr-19 20:00N 09°22' W 079°53'0 0.0
2018-Apr-19 19:30N 09°22' W 079°53'0 0.0
2018-Apr-19 19:00N 09°22' W 079°53'0 0.0
2018-Apr-19 18:30N 09°22' W 079°53'0 0.0
2018-Apr-19 18:00N 09°22' W 079°53'0 0.0
2018-Apr-19 17:30N 09°22' W 079°53'0 0.0
2018-Apr-19 17:00N 09°22' W 079°53'0 0.0
2018-Apr-19 16:30N 09°22' W 079°53'0 0.0
2018-Apr-19 16:00N 09°22' W 079°53'0 0.0
2018-Apr-19 15:30N 09°22' W 079°53'0 0.0
2018-Apr-19 15:00N 09°22' W 079°53'0 0.0
2018-Apr-19 14:30N 09°22' W 079°53'0 0.0
2018-Apr-19 14:00N 09°22' W 079°53'0 0.0
2018-Apr-19 13:30N 09°22' W 079°53'0 0.0
2018-Apr-19 13:00N 09°22' W 079°53'0 0.0
2018-Apr-19 12:30N 09°22' W 079°53'0 0.0
2018-Apr-19 12:00N 09°22' W 079°53'0 0.0
2018-Apr-19 11:30N 09°22' W 079°53'0 0.0
2018-Apr-19 11:00N 09°22' W 079°53'0 0.0
2018-Apr-19 10:30N 09°22' W 079°53'0 0.0
2018-Apr-19 09:57N 09°22' W 079°53'0 0.0
2018-Apr-19 09:30N 09°22' W 079°53'0 0.0
2018-Apr-19 09:00N 09°22' W 079°53'0 0.0
2018-Apr-19 08:30N 09°22' W 079°53'0 0.0
2018-Apr-19 08:00N 09°22' W 079°53'0 0.0
2018-Apr-19 07:30N 09°22' W 079°53'0 0.0
2018-Apr-19 07:00N 09°22' W 079°53'0 0.0
2018-Apr-19 06:30N 09°22' W 079°53'0 0.0
2018-Apr-19 06:00N 09°22' W 079°53'0 0.0
2018-Apr-19 05:30N 09°22' W 079°53'0 0.0
2018-Apr-19 05:00N 09°22' W 079°53'0 0.0
2018-Apr-19 04:30N 09°22' W 079°53'0 0.0
2018-Apr-19 04:00N 09°22' W 079°53'0 0.0
2018-Apr-19 03:30N 09°22' W 079°53'0 0.0
2018-Apr-19 03:00N 09°22' W 079°53'0 0.0
2018-Apr-19 02:30N 09°22' W 079°53'0 0.0
2018-Apr-19 02:00N 09°22' W 079°53'0 0.0
2018-Apr-19 01:30N 09°22' W 079°53'0 0.0
2018-Apr-19 01:00N 09°22' W 079°53'0 0.0
2018-Apr-19 00:30N 09°22' W 079°53'0 0.0
2018-Apr-19 00:00N 09°22' W 079°53'0 0.0
2018-Apr-18 23:30N 09°22' W 079°53'0 0.0
2018-Apr-18 23:00N 09°22' W 079°53'0 0.0
2018-Apr-18 22:30N 09°22' W 079°53'0 0.0
2018-Apr-18 22:00N 09°22' W 079°53'0 0.0
2018-Apr-18 21:30N 09°22' W 079°53'0 0.0
2018-Apr-18 21:00N 09°22' W 079°53'0 0.0
2018-Apr-18 20:30N 09°22' W 079°53'0 0.0
2018-Apr-18 20:00N 09°22' W 079°53'0 0.0
2018-Apr-18 19:30N 09°22' W 079°53'0 0.0
2018-Apr-18 19:00N 09°22' W 079°53'0 0.0
2018-Apr-18 18:30N 09°22' W 079°53'0 0.0
2018-Apr-18 18:00N 09°22' W 079°53'0 0.0
2018-Apr-18 17:30N 09°22' W 079°53'0 0.0
2018-Apr-18 17:00N 09°22' W 079°53'1 2.9
2018-Apr-18 16:30N 09°23' W 079°54'2 5.0
2018-Apr-18 16:00N 09°26' W 079°54'2 3.6
2018-Apr-18 15:30N 09°27' W 079°53'3 6.6
2018-Apr-18 15:00N 09°30' W 079°53'1 2.4
2018-Apr-18 14:30N 09°29' W 079°53'1 1.3
2018-Apr-18 14:00N 09°30' W 079°52'1 1.5
2018-Apr-18 13:15N 09°28' W 079°53'0 1.2
2018-Apr-18 12:58N 09°28' W 079°53'1 1.4
2018-Apr-18 12:30N 09°29' W 079°53'1 1.8
2018-Apr-18 12:00N 09°28' W 079°53'2 3.6
2018-Apr-18 11:30N 09°26' W 079°54'510.0
2018-Apr-18 11:01N 09°31' W 079°52'714.7
2018-Apr-18 10:30N 09°38' W 079°50'  
2018-Apr-16 02:23N 25°24' W 079°36'918.8
2018-Apr-16 01:54N 25°32' W 079°39'718.2
2018-Apr-16 01:30N 25°39' W 079°40'816.4
2018-Apr-16 01:00N 25°48' W 079°42'816.4
2018-Apr-16 00:30N 25°53' W 079°48'816.5
2018-Apr-16 00:00N 25°59' W 079°55'816.8
2018-Apr-15 23:30N 26°05' W 080°02'4 8.8
2018-Apr-15 23:00N 26°06' W 080°07'1 2.2
2018-Apr-15 22:28N 26°04' W 080°07'0 0.0
2018-Apr-15 21:58N 26°04' W 080°07'0 0.0
2018-Apr-15 21:28N 26°04' W 080°07'0 0.0
2018-Apr-15 20:58N 26°04' W 080°07'0 0.0
2018-Apr-15 20:28N 26°04' W 080°07'0 0.0
2018-Apr-15 19:58N 26°04' W 080°07'0 0.0
2018-Apr-15 19:28N 26°04' W 080°07'0 0.0
2018-Apr-15 18:58N 26°04' W 080°07'0 0.0
2018-Apr-15 18:28N 26°04' W 080°07'0 0.0
2018-Apr-15 17:58N 26°04' W 080°07'0 0.0
2018-Apr-15 17:28N 26°04' W 080°07'0 0.0
2018-Apr-15 16:58N 26°04' W 080°07'0 0.0
2018-Apr-15 16:28N 26°04' W 080°07'0 0.0
2018-Apr-15 15:58N 26°04' W 080°07'0 0.0
2018-Apr-15 15:28N 26°04' W 080°07'0 0.0
2018-Apr-15 14:58N 26°04' W 080°07'0 0.0
2018-Apr-15 14:28N 26°04' W 080°07'0 0.0
2018-Apr-15 13:58N 26°04' W 080°07'0 0.0
2018-Apr-15 13:28N 26°04' W 080°07'0 0.0
2018-Apr-15 12:58N 26°04' W 080°07'0 0.0
2018-Apr-15 12:28N 26°04' W 080°07'0 0.0
2018-Apr-15 11:58N 26°04' W 080°07'0 0.0
2018-Apr-15 11:26N 26°04' W 080°07'1 3.0
2018-Apr-15 11:00N 26°06' W 080°07'4 7.7
2018-Apr-15 10:30N 26°06' W 080°02'2 4.1
2018-Apr-15 10:00N 26°07' W 080°01'2 4.9
2018-Apr-15 09:30N 26°09' W 080°00'2 4.2
2018-Apr-15 09:00N 26°12' W 080°00'2 4.1
2018-Apr-15 08:30N 26°14' W 079°60'2 4.4
2018-Apr-15 08:00N 26°16' W 079°60'2 4.6
2018-Apr-15 07:30N 26°18' W 079°60'2 4.1
2018-Apr-15 07:00N 26°20' W 079°60'2 4.3
2018-Apr-15 06:30N 26°22' W 079°59'2 3.4
2018-Apr-15 06:00N 26°24' W 079°59'714.2
2018-Apr-15 05:30N 26°31' W 079°59'918.1
2018-Apr-15 05:00N 26°40' W 079°58'917.6
2018-Apr-15 04:30N 26°49' W 079°58'917.9
2018-Apr-15 04:00N 26°58' W 079°58'917.8
2018-Apr-15 03:30N 27°07' W 079°58'27518.6
2018-Apr-14 12:45N 31°41' W 080°31'618.9
2018-Apr-14 12:27N 31°46' W 080°32'512.1
2018-Apr-14 12:01N 31°51' W 080°35'5 9.7
2018-Apr-14 11:30N 31°54' W 080°39'5 9.6
2018-Apr-14 11:00N 31°58' W 080°43'713.1
2018-Apr-14 10:30N 32°02' W 080°49'611.8
2018-Apr-14 10:00N 32°03' W 080°56'510.4
2018-Apr-14 09:30N 32°06' W 081°01'4 7.5
2018-Apr-14 09:00N 32°05' W 081°05'2 4.7
2018-Apr-14 08:30N 32°06' W 081°07'1 1.8
2018-Apr-14 07:48N 32°07' W 081°08'0 0.0
2018-Apr-14 07:30N 32°07' W 081°08'0 0.0
2018-Apr-14 07:00N 32°07' W 081°08'0 0.0
2018-Apr-14 06:30N 32°07' W 081°08'0 0.0
2018-Apr-14 06:00N 32°07' W 081°08'0 0.0
2018-Apr-14 05:30N 32°07' W 081°08'0 0.0
2018-Apr-14 05:00N 32°07' W 081°08'0 0.0
2018-Apr-14 04:30N 32°07' W 081°08'0 0.0
2018-Apr-14 04:00N 32°07' W 081°08'0 0.0
2018-Apr-14 03:30N 32°07' W 081°08'0 0.0
2018-Apr-14 03:00N 32°07' W 081°08'0 0.0
2018-Apr-14 02:30N 32°07' W 081°08'0 0.0
2018-Apr-14 02:00N 32°07' W 081°08'0 0.0
2018-Apr-14 01:30N 32°07' W 081°08'0 0.0
2018-Apr-14 01:00N 32°07' W 081°08'0 0.0
2018-Apr-14 00:30N 32°07' W 081°08'0 0.9
2018-Apr-14 00:00N 32°08' W 081°08'2 3.9
2018-Apr-13 23:30N 32°06' W 081°07'2 4.5
2018-Apr-13 23:00N 32°05' W 081°05'3 5.5
2018-Apr-13 22:30N 32°05' W 081°01'4 8.4
2018-Apr-13 22:00N 32°04' W 080°57'510.9
2018-Apr-13 21:30N 32°02' W 080°51'713.4
2018-Apr-13 21:00N 31°58' W 080°44'5 9.4
2018-Apr-13 20:30N 31°57' W 080°39'4 7.7
2018-Apr-13 20:00N 31°57' W 080°35'4 7.6
2018-Apr-13 19:30N 31°58' W 080°30'4 7.5
2018-Apr-13 19:00N 31°58' W 080°26'4 7.5
2018-Apr-13 18:30N 31°59' W 080°21'2 4.5
2018-Apr-13 18:00N 31°59' W 080°19'0 0.9
2018-Apr-13 17:29N 31°59' W 080°18'3 6.0
2018-Apr-13 16:56N 31°60' W 080°14'  

Dump ship's entire track history